createdAt,value
2022-12-08T04:19:16.967Z,1.14
2022-12-08T04:22:19.396Z,1.14
2022-12-08T04:25:21.488Z,0.67
2022-12-08T04:28:23.819Z,0.71
2022-12-08T04:31:26.062Z,0.80
2022-12-08T04:34:28.452Z,0.83
2022-12-08T04:37:30.564Z,0.85
2022-12-08T04:40:33.561Z,0.90
2022-12-08T04:43:36.693Z,0.98
2022-12-08T04:46:43.210Z,1.10
2022-12-08T04:49:45.773Z,0.85
2022-12-08T04:52:48.128Z,0.72
2022-12-08T04:55:50.277Z,0.59
2022-12-08T04:58:52.846Z,0.55
2022-12-08T05:01:55.018Z,0.54
2022-12-08T05:04:57.517Z,0.60
2022-12-08T05:07:59.687Z,0.54
2022-12-08T05:11:03.781Z,0.49
2022-12-08T05:14:05.875Z,0.45
2022-12-08T05:17:09.825Z,0.60
2022-12-08T05:20:12.562Z,0.59
2022-12-08T05:23:15.119Z,0.65
2022-12-08T05:26:17.277Z,0.89
2022-12-08T05:29:19.626Z,1.05
2022-12-08T05:32:21.752Z,1.13
2022-12-08T05:35:24.141Z,1.13
2022-12-08T05:38:26.256Z,1.27
2022-12-08T05:41:28.786Z,1.22
2022-12-08T05:44:30.881Z,1.30
2022-12-08T05:47:36.234Z,1.38
2022-12-08T05:50:38.581Z,1.35
2022-12-08T05:53:40.898Z,1.35
2022-12-08T05:56:43.028Z,1.29
2022-12-08T05:59:45.459Z,1.26
2022-12-08T06:02:47.725Z,1.34
2022-12-08T06:05:50.528Z,1.57
2022-12-08T06:08:53.316Z,1.55
2022-12-08T06:11:55.712Z,1.52
2022-12-08T06:14:57.753Z,1.48
2022-12-08T06:18:00.126Z,1.46
2022-12-08T06:21:13.413Z,1.62
2022-12-08T06:24:16.228Z,1.71
2022-12-08T06:27:18.268Z,1.69
2022-12-08T06:30:20.646Z,1.77
2022-12-08T06:33:22.927Z,1.80
2022-12-08T06:36:27.820Z,1.82
2022-12-08T06:39:29.949Z,1.83
2022-12-08T06:42:44.618Z,1.85
2022-12-08T06:45:46.793Z,1.90
2022-12-08T06:48:50.691Z,2.01
2022-12-08T06:51:52.794Z,2.08
2022-12-08T06:54:55.108Z,2.08
2022-12-08T06:57:57.304Z,2.11
2022-12-08T07:01:05.619Z,2.16
2022-12-08T07:04:07.923Z,2.26
2022-12-08T07:07:10.318Z,2.38
2022-12-08T07:10:12.656Z,2.38
2022-12-08T07:13:15.032Z,2.41
2022-12-08T07:16:17.204Z,2.50
2022-12-08T07:19:19.921Z,2.60
2022-12-08T07:22:22.027Z,2.58
2022-12-08T07:25:24.410Z,2.63
2022-12-08T07:28:26.482Z,2.71
2022-12-08T07:31:28.995Z,2.75
2022-12-08T07:34:31.215Z,2.76
2022-12-08T07:37:34.902Z,2.77
2022-12-08T07:40:38.669Z,2.79
2022-12-08T07:43:42.521Z,2.82
2022-12-08T07:46:44.646Z,2.94
2022-12-08T07:49:47.091Z,3.18
2022-12-08T07:52:49.184Z,3.40
2022-12-08T07:55:51.560Z,3.59
2022-12-08T07:58:53.703Z,3.82
2022-12-08T08:02:13.416Z,4.13
2022-12-08T08:05:18.555Z,4.20
2022-12-08T08:08:20.824Z,4.17
2022-12-08T08:11:24.284Z,4.59
2022-12-08T08:14:26.359Z,4.78
2022-12-08T08:17:29.747Z,4.83
2022-12-08T08:20:32.161Z,5.22
2022-12-08T08:23:34.979Z,5.29
2022-12-08T08:26:37.754Z,5.22
2022-12-08T08:29:40.101Z,5.42
2022-12-08T08:32:42.729Z,5.36
2022-12-08T08:35:45.057Z,5.39
2022-12-08T08:38:47.166Z,5.39
2022-12-08T08:41:49.691Z,5.53
2022-12-08T08:44:51.791Z,5.81
2022-12-08T08:47:54.311Z,5.89
2022-12-08T08:50:57.190Z,5.87
2022-12-08T08:53:59.684Z,5.84
2022-12-08T08:57:01.919Z,5.91
2022-12-08T09:00:06.486Z,5.87
2022-12-08T09:03:08.710Z,5.94
2022-12-08T09:06:11.726Z,5.82
2022-12-08T09:09:14.529Z,5.56
2022-12-08T09:12:17.093Z,5.45
2022-12-08T09:15:20.684Z,5.41
2022-12-08T09:18:23.052Z,5.09
2022-12-08T09:21:26.367Z,5.15
2022-12-08T09:24:28.729Z,5.20
2022-12-08T09:27:31.207Z,4.81
2022-12-08T09:30:33.582Z,4.91
2022-12-08T09:33:35.765Z,4.97
2022-12-08T09:36:38.378Z,4.70
2022-12-08T09:39:40.544Z,4.63
2022-12-08T09:42:51.282Z,4.75
2022-12-08T09:45:55.043Z,4.84
2022-12-08T09:49:00.157Z,5.10
2022-12-08T09:52:03.029Z,5.29
2022-12-08T09:55:16.623Z,5.37
2022-12-08T09:58:47.668Z,5.57
2022-12-08T10:01:50.937Z,5.65
2022-12-08T10:04:55.738Z,5.53
2022-12-08T10:08:25.068Z,5.78
2022-12-08T10:11:44.516Z,5.64
2022-12-08T10:15:17.413Z,5.25
2022-12-08T10:18:24.979Z,5.38
2022-12-08T10:21:30.195Z,5.49
2022-12-08T10:24:41.145Z,5.46
2022-12-08T10:27:43.436Z,5.72
2022-12-08T10:30:45.768Z,5.74
2022-12-08T10:33:54.557Z,6.13
2022-12-08T10:36:59.168Z,5.97
2022-12-08T10:40:17.736Z,6.06
2022-12-08T10:43:25.577Z,6.01
2022-12-08T10:46:29.119Z,5.97
2022-12-08T10:49:35.917Z,5.98
2022-12-08T10:52:40.240Z,5.77
2022-12-08T10:56:05.621Z,5.61
2022-12-08T10:59:17.237Z,5.56
2022-12-08T11:02:20.421Z,5.40
2022-12-08T11:05:25.985Z,5.56
2022-12-08T11:08:29.720Z,5.53
2022-12-08T11:11:44.961Z,5.16
2022-12-08T11:14:57.183Z,5.37
2022-12-08T11:18:28.413Z,5.25
2022-12-08T11:21:37.182Z,5.11
2022-12-08T11:24:39.264Z,5.14
2022-12-08T11:27:44.943Z,5.34
2022-12-08T11:30:54.722Z,5.62
2022-12-08T11:33:57.547Z,5.32
2022-12-08T11:36:59.782Z,5.24
2022-12-08T11:40:07.877Z,5.25
2022-12-08T11:43:39.019Z,5.25
2022-12-08T11:46:50.745Z,5.26
2022-12-08T11:50:18.045Z,5.43
2022-12-08T11:53:37.219Z,5.44
2022-12-08T11:56:44.682Z,5.38
2022-12-08T11:59:51.975Z,5.53
2022-12-08T12:03:07.592Z,5.66
2022-12-08T12:10:22.482Z,5.80
2022-12-08T12:13:53.452Z,5.72
2022-12-08T12:17:07.720Z,5.50
2022-12-08T12:20:27.859Z,5.53
2022-12-08T12:23:38.444Z,5.34
2022-12-08T12:26:53.776Z,5.30
2022-12-08T12:30:01.789Z,5.25
2022-12-08T12:33:08.650Z,5.26
2022-12-08T12:36:12.613Z,5.19
2022-12-08T12:39:18.176Z,5.14
2022-12-08T12:42:49.173Z,5.03
2022-12-08T12:46:23.790Z,4.81
2022-12-08T12:49:43.547Z,4.99
2022-12-08T12:52:47.021Z,4.94
2022-12-08T12:55:53.848Z,4.87
2022-12-08T12:58:56.230Z,4.84
2022-12-08T13:01:58.501Z,4.61
2022-12-08T13:05:15.707Z,4.67
2022-12-08T13:08:23.841Z,4.72
2022-12-08T13:11:26.454Z,4.71
2022-12-08T13:14:35.166Z,4.66
2022-12-08T13:17:38.508Z,4.79
2022-12-08T13:20:46.060Z,4.76
2022-12-08T13:24:14.182Z,4.70
2022-12-08T13:27:16.179Z,4.77
2022-12-08T13:30:48.096Z,4.75
2022-12-08T13:33:50.777Z,4.82
2022-12-08T13:37:13.847Z,4.88
2022-12-08T13:40:24.031Z,4.79
2022-12-08T13:43:45.079Z,4.74
2022-12-08T13:47:17.254Z,4.52
2022-12-08T13:57:16.934Z,4.31
2022-12-08T14:00:21.402Z,4.31
2022-12-08T14:03:23.960Z,4.28
2022-12-08T14:06:30.797Z,4.24
2022-12-08T14:09:37.203Z,4.25
2022-12-08T14:12:43.372Z,4.15
2022-12-08T14:15:45.813Z,4.08
2022-12-08T14:18:51.118Z,4.03
2022-12-08T14:22:18.680Z,3.98
2022-12-08T14:25:22.729Z,3.98
2022-12-08T14:28:25.619Z,3.83
2022-12-08T14:31:28.867Z,3.88
2022-12-08T14:34:40.327Z,3.85
2022-12-08T14:37:44.592Z,3.79
2022-12-08T14:40:49.931Z,3.79
2022-12-08T14:44:01.048Z,3.72
2022-12-08T14:47:09.301Z,3.77
2022-12-08T14:50:36.102Z,3.64
2022-12-08T14:53:43.236Z,3.65
2022-12-08T14:56:53.161Z,3.64
2022-12-08T14:59:55.583Z,3.65
2022-12-08T15:02:57.838Z,3.66
2022-12-08T15:06:06.632Z,3.67
2022-12-08T15:09:27.092Z,3.67
2022-12-08T15:12:31.799Z,3.65
2022-12-08T15:15:57.951Z,3.74
2022-12-08T15:19:27.787Z,3.65
2022-12-08T15:22:31.075Z,3.54
2022-12-08T15:25:33.790Z,3.54
2022-12-08T15:28:35.910Z,3.48
2022-12-08T15:31:38.557Z,3.54
2022-12-08T15:34:40.787Z,3.48
2022-12-08T15:37:43.133Z,3.56
2022-12-08T15:40:45.188Z,3.53
2022-12-08T15:43:47.524Z,3.59
2022-12-08T15:46:50.104Z,3.64
2022-12-08T15:49:53.043Z,3.67
2022-12-08T15:52:55.159Z,3.66
2022-12-08T15:56:26.373Z,3.66
2022-12-08T15:59:23.490Z,3.69
2022-12-08T16:02:34.330Z,3.70
2022-12-08T16:06:10.187Z,3.73
2022-12-08T16:09:30.091Z,3.78
2022-12-08T16:16:13.849Z,3.74
2022-12-08T16:19:16.336Z,3.77
